Hauptseite
METAR-TAF:

METAR-TAF

Flughäfen :

Flughafen Hannover-Langenhagen

Hannover, Deutschland

Breite: 52-28N, Länge: 009-41E, Höhe: 56 m

Beobachtung

Neuester Wetterbericht von vor 34 Minuten, um 15:50 UTC
Wind 1 kt aus unterschiedlichen Richtungen
Temperatur 28°C
Luftfeuchtigkeit 28%
Luftdruck 1024 hPa
Sichtweite 10 km oder mehr
keine Wolken unter 1500 m und keine Kumulonimbus oder Gewitterwolken

METAR: EDDV 231550Z VRB01KT CAVOK 28/08 Q1024 NOSIG

Zeit: 18:24 (16:24 UTC)

Prognose

Neuester Wetterbericht von vor 5 Stunden und 24 Minuten, um 11:00 UTC
Gültige Prognose vom 23 um 12 UTC bis 24 um 12 UTC
Wind 4 kt aus Nordost
Sichtweite 10 km oder mehr
keine Wolken unter 1500 m und keine Kumulonimbus oder Gewitterwolken
Übergehend zu
vom 24 um 06 UTC bis 24 um 08 UTC
Wind 9 kt aus Ost/Südost

TAF: EDDV 231100Z 2312/2412 05004KT CAVOK BECMG 2406/2408 11009KT

Wetterbeobachtungen und Prognosen von mehr als 4000 Flughäfen (METAR und TAF Bericht).

Die verfügbaren Stationen werden durch gelbe und rote Markierungen auf der Karte dargestellt.

Führen Sie die Maus auf sie, um den Namen der Station zu sehen.

Darauf klicken, um die Beobachtung von Wetterbeobachtungen und Prognosen zu sehen.

Um die Karte zu ändern : klicken Sie auf den grünen Tasten mit einem schwarzen Kreuz Zum Vergrößern, auf den grünen Button mit einem Gedankenstrich zu verkleinern, oder auf die grünen Pfeile für benachbarte Karten.


METAR-TAF: